Time;durP1;ratioP1;P1;durP2;ratioP2;P2;SDS_P1;SDS_P2;PMS_P1;PMS_P2;Temp;Humidity;BMP_temperature;BMP_pressure;BME280_temperature;BME280_humidity;BME280_pressure;Samples;Min_cycle;Max_cycle;Signal;HPM_P1;HPM_P2
2021/08/09 00:01:34;;;;;;;11.55;4.25;;;25.60;99.90;;;;;;4881527;29;20617;-81
2021/08/09 00:03:59;;;;;;;14.65;4.78;;;25.60;99.90;;;;;;4881767;29;20033;-81
2021/08/09 00:06:25;;;;;;;19.70;5.95;;;25.50;99.90;;;;;;4881564;29;20496;-82
2021/08/09 00:08:51;;;;;;;13.95;4.90;;;25.40;99.90;;;;;;4881422;29;20033;-77
2021/08/09 00:11:17;;;;;;;12.38;5.05;;;25.40;99.90;;;;;;4881430;29;20037;-83
2021/08/09 00:13:43;;;;;;;11.05;4.60;;;25.30;99.90;;;;;;4881860;29;20044;-78
2021/08/09 00:16:09;;;;;;;12.95;5.03;;;25.20;99.90;;;;;;4881881;29;20487;-84
2021/08/09 00:18:34;;;;;;;12.02;5.32;;;25.10;99.90;;;;;;4882110;29;20113;-80
2021/08/09 00:21:00;;;;;;;13.32;4.25;;;25.10;99.90;;;;;;4880337;29;20072;-82
2021/08/09 00:23:26;;;;;;;14.38;4.45;;;25.10;99.90;;;;;;4882278;29;20033;-79
2021/08/09 00:25:52;;;;;;;17.60;5.85;;;25.00;99.90;;;;;;4881799;29;20052;-77
2021/08/09 00:28:18;;;;;;;13.23;4.57;;;25.10;99.90;;;;;;4881626;29;20436;-81
2021/08/09 00:30:44;;;;;;;12.88;5.10;;;25.10;99.90;;;;;;4881803;29;20060;-81
2021/08/09 00:33:09;;;;;;;12.15;5.07;;;25.10;99.90;;;;;;4895301;29;20056;-78
2021/08/09 00:35:35;;;;;;;12.95;4.53;;;25.20;99.90;;;;;;4881723;29;20405;-83
2021/08/09 00:38:01;;;;;;;16.40;4.50;;;25.30;99.90;;;;;;4881410;29;20093;-82
2021/08/09 00:40:26;;;;;;;17.80;5.47;;;25.30;99.90;;;;;;4881141;29;20447;-81
2021/08/09 00:42:52;;;;;;;13.77;4.60;;;25.30;99.90;;;;;;4880693;29;20029;-79
2021/08/09 00:45:18;;;;;;;11.57;4.53;;;25.30;99.90;;;;;;4880921;29;20123;-83
2021/08/09 00:47:44;;;;;;;18.60;4.97;;;25.20;99.90;;;;;;4880979;29;20033;-81
2021/08/09 00:50:10;;;;;;;13.00;4.40;;;25.20;99.90;;;;;;4880999;29;20513;-79
2021/08/09 00:52:35;;;;;;;16.80;5.60;;;25.20;99.90;;;;;;4880481;29;20064;-81
2021/08/09 00:55:03;;;;;;;14.63;5.10;;;25.10;99.90;;;;;;4880650;29;20057;-84
2021/08/09 00:57:29;;;;;;;10.80;4.25;;;25.10;99.90;;;;;;4880513;29;20033;-78
2021/08/09 00:59:55;;;;;;;13.32;4.68;;;25.00;99.90;;;;;;4880610;29;20069;-80
2021/08/09 01:02:21;;;;;;;15.45;6.05;;;25.00;99.90;;;;;;4880665;29;20044;-78
2021/08/09 01:04:47;;;;;;;8.48;4.28;;;24.90;99.90;;;;;;4880641;29;20061;-81
2021/08/09 01:07:13;;;;;;;15.30;5.32;;;24.90;99.90;;;;;;4880876;29;20025;-83
2021/08/09 01:10:04;;;;;;;11.55;5.03;;;24.90;99.90;;;;;;4880687;29;20033;-82
2021/08/09 01:12:44;;;;;;;14.35;5.72;;;24.90;99.90;;;;;;4880621;29;20037;-79
2021/08/09 01:15:23;;;;;;;11.18;4.80;;;24.90;99.90;;;;;;4880710;29;20040;-82
2021/08/09 01:17:51;;;;;;;14.02;5.03;;;24.90;99.90;;;;;;4880409;29;20068;-81
2021/08/09 01:20:39;;;;;;;14.27;5.35;;;25.00;99.90;;;;;;4880337;29;20088;-79
2021/08/09 01:23:23;;;;;;;16.48;5.72;;;25.00;99.90;;;;;;4880455;29;20035;-84
2021/08/09 01:26:31;;;;;;;12.55;4.53;;;24.90;99.90;;;;;;4880486;29;20140;-81
2021/08/09 01:28:58;;;;;;;19.10;5.40;;;24.90;99.90;;;;;;4880080;29;20089;-81
2021/08/09 01:31:29;;;;;;;11.45;4.95;;;24.90;99.90;;;;;;4880021;29;20401;-82
2021/08/09 01:33:56;;;;;;;14.77;5.20;;;25.00;99.90;;;;;;4880206;29;20029;-83
2021/08/09 01:36:22;;;;;;;12.15;5.10;;;25.00;99.90;;;;;;4880019;29;20521;-81
2021/08/09 01:38:49;;;;;;;12.50;4.63;;;25.00;99.90;;;;;;4880258;29;20029;-79
2021/08/09 01:41:16;;;;;;;13.60;5.03;;;24.90;99.90;;;;;;4880270;29;20062;-77
2021/08/09 01:43:43;;;;;;;16.23;4.80;;;24.90;99.90;;;;;;4880129;29;20513;-81
2021/08/09 01:46:12;;;;;;;24.05;5.10;;;24.80;99.90;;;;;;4880206;29;20041;-79
2021/08/09 01:48:39;;;;;;;17.33;5.00;;;24.90;99.90;;;;;;4880827;29;20065;-84
2021/08/09 01:51:05;;;;;;;22.30;5.20;;;24.90;99.90;;;;;;4880155;29;20076;-81
2021/08/09 01:53:31;;;;;;;11.70;5.60;;;24.90;99.90;;;;;;4879931;29;20490;-81
2021/08/09 01:55:57;;;;;;;11.13;4.63;;;24.90;99.90;;;;;;4880410;29;20068;-82
2021/08/09 01:58:23;;;;;;;11.35;4.93;;;24.90;99.90;;;;;;4880276;29;20486;-82
2021/08/09 02:00:49;;;;;;;9.85;4.65;;;24.90;99.90;;;;;;4879844;29;20478;-81
2021/08/09 02:03:15;;;;;;;9.32;4.10;;;24.90;99.90;;;;;;4879868;29;20045;-79
2021/08/09 02:05:40;;;;;;;15.32;5.22;;;24.90;99.90;;;;;;4879665;29;20075;-81
2021/08/09 02:08:12;;;;;;;15.05;4.97;;;24.90;99.90;;;;;;4879662;29;20037;-83
2021/08/09 02:10:38;;;;;;;11.40;4.43;;;24.90;99.90;;;;;;4880167;29;20041;-82
2021/08/09 02:13:22;;;;;;;11.60;4.35;;;24.90;99.90;;;;;;4879883;29;20033;-77
2021/08/09 02:15:54;;;;;;;10.93;4.55;;;24.80;99.90;;;;;;4880085;29;20031;-82
2021/08/09 02:18:48;;;;;;;12.35;5.38;;;24.80;99.90;;;;;;4879747;29;20029;-83
2021/08/09 02:21:22;;;;;;;9.52;4.55;;;24.70;99.90;;;;;;4879800;29;20065;-78
2021/08/09 02:23:57;;;;;;;16.70;4.32;;;24.70;99.90;;;;;;4879799;29;20037;-84
2021/08/09 02:26:25;;;;;;;13.13;4.57;;;24.60;99.90;;;;;;4879495;29;20037;-81
2021/08/09 02:28:54;;;;;;;16.40;5.38;;;24.60;99.90;;;;;;4880479;29;20038;-82
2021/08/09 02:31:22;;;;;;;11.85;4.57;;;24.60;99.90;;;;;;4879454;29;20120;-76
2021/08/09 02:33:48;;;;;;;15.65;4.13;;;24.60;99.90;;;;;;4879769;29;20482;-79
2021/08/09 02:36:14;;;;;;;11.68;5.05;;;24.50;99.90;;;;;;4879308;29;20045;-82
2021/08/09 02:38:40;;;;;;;11.50;4.47;;;24.50;99.90;;;;;;4879940;29;20037;-77
2021/08/09 02:41:07;;;;;;;12.23;4.70;;;24.40;99.90;;;;;;4879850;29;20029;-83
2021/08/09 02:43:35;;;;;;;11.93;4.40;;;24.40;99.90;;;;;;4879756;29;20105;-82
2021/08/09 02:46:03;;;;;;;10.63;4.50;;;24.40;99.90;;;;;;4879370;29;20052;-82
2021/08/09 02:48:30;;;;;;;10.77;4.10;;;24.40;99.90;;;;;;4879382;29;20107;-83
2021/08/09 02:50:56;;;;;;;11.02;3.65;;;24.40;99.90;;;;;;4879412;29;20037;-81
2021/08/09 02:53:23;;;;;;;13.73;4.25;;;24.40;99.90;;;;;;4879192;29;20487;-82
2021/08/09 02:55:58;;;;;;;9.15;4.35;;;24.40;99.90;;;;;;4879344;29;20048;-80
2021/08/09 02:58:24;;;;;;;12.40;4.63;;;24.40;99.90;;;;;;4882890;29;20116;-81
2021/08/09 03:00:53;;;;;;;11.30;5.05;;;24.40;99.90;;;;;;4883683;29;20127;-81
2021/08/09 03:03:24;;;;;;;10.27;4.28;;;24.30;99.90;;;;;;4882829;29;20053;-81
2021/08/09 03:05:55;;;;;;;15.45;4.38;;;24.30;99.90;;;;;;4883070;29;20454;-81
2021/08/09 03:08:23;;;;;;;11.38;4.97;;;24.30;99.90;;;;;;4882983;29;20033;-81
2021/08/09 03:10:49;;;;;;;10.70;4.18;;;24.20;99.90;;;;;;4882578;29;20538;-82
2021/08/09 03:13:20;;;;;;;15.68;4.72;;;24.20;99.90;;;;;;4882705;29;20037;-81
2021/08/09 03:15:46;;;;;;;11.70;4.43;;;24.20;99.90;;;;;;4882819;29;20463;-81
2021/08/09 03:18:12;;;;;;;14.00;5.00;;;24.20;99.90;;;;;;4882730;29;20068;-83
2021/08/09 03:20:37;;;;;;;10.90;5.50;;;24.20;99.90;;;;;;4882669;29;20394;-82
2021/08/09 03:23:03;;;;;;;10.13;4.43;;;24.20;99.90;;;;;;4882597;29;20029;-82
2021/08/09 03:25:29;;;;;;;9.05;4.18;;;24.20;99.90;;;;;;4882790;29;20562;-81
2021/08/09 03:27:55;;;;;;;12.80;4.30;;;24.20;99.90;;;;;;4882581;29;20025;-81
2021/08/09 03:30:21;;;;;;;16.75;4.80;;;24.20;99.90;;;;;;4882583;29;20048;-83
2021/08/09 03:32:46;;;;;;;13.00;4.32;;;24.20;99.90;;;;;;4882580;29;20153;-81
2021/08/09 03:35:12;;;;;;;8.05;4.47;;;24.20;99.90;;;;;;4882491;29;20037;-83
2021/08/09 03:37:38;;;;;;;9.98;4.45;;;24.20;99.90;;;;;;4882453;29;20037;-82
2021/08/09 03:40:05;;;;;;;13.10;4.10;;;24.10;99.90;;;;;;4882126;29;20043;-83
2021/08/09 03:42:31;;;;;;;10.85;4.07;;;24.10;99.90;;;;;;4882398;29;20037;-82
2021/08/09 03:44:57;;;;;;;10.93;4.68;;;24.20;99.90;;;;;;4882307;29;20051;-82
2021/08/09 03:47:22;;;;;;;8.07;4.90;;;24.10;99.90;;;;;;4882153;29;20447;-82
2021/08/09 03:49:48;;;;;;;14.85;5.43;;;24.20;99.90;;;;;;4882282;29;20033;-82
2021/08/09 03:52:14;;;;;;;11.80;5.00;;;24.10;99.90;;;;;;4885255;29;20526;-83
2021/08/09 03:54:39;;;;;;;14.20;5.30;;;24.10;99.90;;;;;;4882095;29;20056;-83
2021/08/09 03:57:05;;;;;;;13.02;4.80;;;24.00;99.90;;;;;;4882549;29;20036;-83
2021/08/09 03:59:31;;;;;;;11.48;5.00;;;24.00;99.90;;;;;;4882074;29;20044;-82
2021/08/09 04:01:56;;;;;;;16.40;5.60;;;24.00;99.90;;;;;;4882011;29;20088;-83
2021/08/09 04:04:22;;;;;;;9.63;5.00;;;24.00;99.90;;;;;;4882089;29;20595;-82
2021/08/09 04:06:48;;;;;;;16.48;5.40;;;24.00;99.90;;;;;;4882049;29;20068;-83
2021/08/09 04:09:13;;;;;;;8.50;5.60;;;24.00;99.90;;;;;;4879855;29;20080;-83
2021/08/09 04:11:39;;;;;;;7.90;4.95;;;24.00;99.90;;;;;;4881682;29;20029;-82
2021/08/09 04:14:05;;;;;;;17.88;5.72;;;24.00;99.90;;;;;;4881799;29;20065;-82
2021/08/09 04:16:31;;;;;;;14.82;6.00;;;24.00;99.90;;;;;;4881674;29;20044;-83
2021/08/09 04:18:57;;;;;;;15.30;5.15;;;24.00;99.90;;;;;;4896090;29;20037;-83
2021/08/09 04:21:22;;;;;;;18.92;5.75;;;24.10;99.90;;;;;;4881737;29;20045;-82
2021/08/09 04:23:49;;;;;;;26.73;6.97;;;24.10;99.90;;;;;;4881966;29;20033;-82
2021/08/09 04:26:15;;;;;;;17.05;7.90;;;24.10;99.90;;;;;;4881768;29;20532;-82
2021/08/09 04:28:42;;;;;;;14.98;6.70;;;24.10;99.90;;;;;;4881704;29;20421;-81
2021/08/09 04:31:08;;;;;;;20.75;7.43;;;24.10;99.90;;;;;;4881874;29;20033;-82
2021/08/09 04:33:42;;;;;;;18.02;7.32;;;24.10;99.90;;;;;;4881514;29;20032;-82
2021/08/09 04:36:07;;;;;;;14.13;7.07;;;24.10;99.90;;;;;;4880196;29;20033;-82
2021/08/09 04:38:33;;;;;;;15.07;6.07;;;24.20;99.90;;;;;;4881027;29;20037;-82
2021/08/09 04:40:59;;;;;;;12.23;6.38;;;24.20;99.90;;;;;;4881406;29;20052;-82
2021/08/09 04:43:25;;;;;;;13.35;6.20;;;24.30;99.90;;;;;;4881113;29;20044;-83
2021/08/09 04:45:51;;;;;;;13.55;6.03;;;24.40;99.90;;;;;;4881016;29;20128;-82
2021/08/09 04:48:16;;;;;;;12.38;7.43;;;24.50;99.90;;;;;;4881359;29;20037;-83
2021/08/09 04:50:42;;;;;;;16.17;7.07;;;24.60;99.90;;;;;;4880987;29;20064;-82
2021/08/09 04:53:09;;;;;;;16.50;7.20;;;24.70;99.90;;;;;;4881285;29;20029;-83
2021/08/09 04:55:35;;;;;;;17.70;7.70;;;24.80;99.90;;;;;;4881067;29;20029;-82
2021/08/09 04:58:01;;;;;;;24.67;7.53;;;24.90;99.90;;;;;;4881052;29;20047;-82
2021/08/09 05:00:27;;;;;;;20.83;7.82;;;25.20;99.90;;;;;;4880751;29;20398;-81
2021/08/09 05:02:52;;;;;;;13.48;7.45;;;25.50;99.90;;;;;;4880704;29;20100;-81
2021/08/09 05:05:18;;;;;;;11.60;6.30;;;25.80;99.90;;;;;;4880580;29;20101;-81
2021/08/09 05:07:44;;;;;;;14.05;7.43;;;26.20;99.90;;;;;;4880903;29;20032;-81
2021/08/09 05:10:10;;;;;;;14.27;6.10;;;26.50;99.90;;;;;;4880636;29;20492;-82
2021/08/09 05:12:36;;;;;;;16.20;6.00;;;26.90;99.90;;;;;;4880750;29;20036;-82
2021/08/09 05:15:02;;;;;;;12.57;6.22;;;27.30;99.90;;;;;;4880626;29;20033;-82
2021/08/09 05:17:28;;;;;;;17.23;7.18;;;27.80;99.90;;;;;;4880668;29;20453;-81
2021/08/09 05:19:55;;;;;;;16.98;7.07;;;28.40;99.90;;;;;;4879466;29;20067;-82
2021/08/09 05:22:20;;;;;;;30.65;6.80;;;29.30;99.90;;;;;;4880642;29;20105;-81
2021/08/09 05:24:48;;;;;;;20.83;7.45;;;30.70;99.90;;;;;;4880115;29;20041;-82
2021/08/09 05:27:14;;;;;;;21.40;6.53;;;32.30;99.90;;;;;;4880578;29;20434;-85
2021/08/09 05:29:39;;;;;;;19.00;6.68;;;33.70;99.90;;;;;;4880506;29;20029;-84
2021/08/09 05:32:05;;;;;;;14.77;6.90;;;35.10;98.30;;;;;;4880075;29;20037;-81
2021/08/09 05:34:32;;;;;;;12.70;6.25;;;36.20;96.40;;;;;;4880166;29;20037;-83
2021/08/09 05:36:58;;;;;;;15.13;6.43;;;37.00;95.10;;;;;;4880427;29;20115;-82
2021/08/09 05:39:24;;;;;;;19.17;7.90;;;37.40;93.70;;;;;;4880428;29;20111;-82
2021/08/09 05:41:50;;;;;;;15.07;7.35;;;37.60;93.50;;;;;;4880851;29;20043;-81
2021/08/09 05:44:15;;;;;;;18.95;8.45;;;37.60;93.70;;;;;;4880323;29;20045;-88
2021/08/09 05:46:41;;;;;;;14.02;8.75;;;37.40;94.50;;;;;;4880383;29;20490;-82
2021/08/09 05:49:07;;;;;;;19.13;10.38;;;37.20;94.90;;;;;;4879032;29;20044;-82
2021/08/09 05:51:38;;;;;;;20.48;10.48;;;37.10;95.50;;;;;;4880485;29;20108;-82
2021/08/09 05:54:03;;;;;;;12.60;9.65;;;37.10;95.20;;;;;;4880088;29;20037;-82
2021/08/09 05:56:29;;;;;;;18.02;10.60;;;36.70;95.90;;;;;;4880193;29;20505;-82
2021/08/09 05:58:54;;;;;;;18.95;11.60;;;36.30;96.60;;;;;;4879885;29;20475;-82
2021/08/09 06:01:20;;;;;;;17.90;10.30;;;36.30;96.70;;;;;;4879912;29;20037;-83
2021/08/09 06:03:46;;;;;;;19.98;11.68;;;36.60;96.60;;;;;;4880032;29;20041;-82
2021/08/09 06:06:19;;;;;;;24.48;10.77;;;36.80;96.30;;;;;;4879793;29;20081;-83
2021/08/09 06:08:46;;;;;;;17.70;10.68;;;37.40;95.40;;;;;;4879764;29;20037;-82
2021/08/09 06:11:13;;;;;;;17.80;11.07;;;37.60;95.20;;;;;;4879813;29;20025;-82
2021/08/09 06:13:39;;;;;;;14.90;10.50;;;37.80;94.60;;;;;;4879935;29;20048;-83
2021/08/09 06:16:05;;;;;;;16.42;10.48;;;37.90;94.70;;;;;;4879683;29;20073;-82
2021/08/09 06:18:33;;;;;;;15.25;10.18;;;38.20;94.30;;;;;;4878292;29;20562;-82
2021/08/09 06:20:59;;;;;;;30.85;9.95;;;38.50;94.10;;;;;;4879458;29;20131;-83
2021/08/09 06:23:25;;;;;;;18.33;11.07;;;38.80;93.10;;;;;;4879358;29;20037;-82
2021/08/09 06:25:51;;;;;;;18.27;10.10;;;39.30;92.90;;;;;;4879477;29;20128;-82
2021/08/09 06:28:16;;;;;;;22.35;10.10;;;39.20;92.70;;;;;;4880048;29;20367;-83
2021/08/09 06:30:42;;;;;;;15.80;9.60;;;39.60;92.10;;;;;;4881834;29;20033;-83
2021/08/09 06:33:08;;;;;;;24.30;9.98;;;39.90;91.00;;;;;;4882788;29;20356;-83
2021/08/09 06:35:33;;;;;;;19.13;9.57;;;39.80;91.10;;;;;;4883309;29;20033;-83
2021/08/09 06:38:04;;;;;;;15.10;8.35;;;40.40;90.80;;;;;;4883241;29;20041;-83
2021/08/09 06:40:30;;;;;;;13.45;8.48;;;40.30;89.90;;;;;;4883085;29;20041;-82
2021/08/09 06:42:55;;;;;;;18.30;9.32;;;40.40;89.10;;;;;;4883071;29;20040;-83
2021/08/09 06:45:21;;;;;;;18.63;9.65;;;40.30;89.50;;;;;;4882830;29;20181;-82
2021/08/09 06:47:47;;;;;;;18.63;8.63;;;39.90;90.00;;;;;;4882948;29;20100;-83
2021/08/09 06:50:12;;;;;;;19.85;9.30;;;39.70;89.40;;;;;;4883060;29;20507;-82
2021/08/09 06:52:38;;;;;;;15.13;7.75;;;40.00;89.50;;;;;;4882817;29;20097;-83
2021/08/09 06:55:05;;;;;;;16.83;8.90;;;39.80;89.60;;;;;;4882563;29;20044;-84
2021/08/09 06:57:31;;;;;;;15.60;9.25;;;39.90;89.50;;;;;;4882889;29;20240;-83
2021/08/09 06:59:56;;;;;;;17.27;8.82;;;40.40;88.40;;;;;;4882502;29;20096;-82
2021/08/09 07:02:22;;;;;;;14.43;8.48;;;40.60;87.70;;;;;;4882627;29;20089;-83
2021/08/09 07:04:48;;;;;;;14.23;7.53;;;40.30;86.90;;;;;;4882667;29;20047;-83
2021/08/09 07:07:13;;;;;;;15.90;7.28;;;39.90;87.40;;;;;;4882707;29;20041;-82
2021/08/09 07:09:39;;;;;;;14.25;7.68;;;39.30;88.50;;;;;;4882619;29;20486;-82
2021/08/09 07:12:05;;;;;;;19.17;8.05;;;39.40;88.60;;;;;;4882575;29;20033;-82
2021/08/09 07:14:31;;;;;;;15.07;7.78;;;39.40;87.80;;;;;;4882448;29;20112;-82
2021/08/09 07:16:58;;;;;;;13.73;8.15;;;39.30;88.80;;;;;;4882346;29;20085;-82
2021/08/09 07:19:23;;;;;;;14.43;7.18;;;39.60;88.90;;;;;;4882436;29;20064;-82
2021/08/09 07:21:49;;;;;;;13.80;7.20;;;39.90;87.70;;;;;;4882570;29;20431;-82
2021/08/09 07:24:15;;;;;;;14.02;7.38;;;39.90;87.50;;;;;;4882132;29;20093;-82
2021/08/09 07:26:41;;;;;;;15.23;8.00;;;39.90;88.00;;;;;;4882402;29;20064;-82
2021/08/09 07:29:07;;;;;;;16.08;7.00;;;39.40;88.70;;;;;;4882094;29;20075;-83
2021/08/09 07:31:33;;;;;;;15.90;7.35;;;39.60;87.00;;;;;;4882065;29;20044;-82
2021/08/09 07:33:59;;;;;;;20.92;7.30;;;39.80;87.60;;;;;;4882183;29;20513;-82
2021/08/09 07:36:24;;;;;;;14.35;6.80;;;39.80;85.90;;;;;;4882125;29;20045;-84
2021/08/09 07:38:50;;;;;;;13.45;6.50;;;39.50;87.20;;;;;;4882201;29;20082;-82
2021/08/09 07:41:16;;;;;;;14.15;6.35;;;39.40;87.40;;;;;;4882001;29;20109;-82
2021/08/09 07:43:41;;;;;;;12.85;6.38;;;39.30;87.60;;;;;;4880793;29;20055;-83
2021/08/09 07:46:07;;;;;;;17.77;6.43;;;39.30;86.70;;;;;;4882266;29;20045;-84
2021/08/09 07:48:33;;;;;;;11.80;6.28;;;39.10;88.10;;;;;;4881830;29;20069;-82
2021/08/09 07:50:58;;;;;;;9.50;6.50;;;39.10;87.70;;;;;;4882063;29;20033;-83
2021/08/09 07:53:24;;;;;;;16.35;6.88;;;38.90;87.70;;;;;;4881703;29;20479;-82
2021/08/09 07:55:50;;;;;;;11.80;7.05;;;38.70;88.40;;;;;;4881688;29;20044;-83
2021/08/09 07:58:16;;;;;;;13.52;7.72;;;38.70;88.40;;;;;;4881942;29;20072;-83
2021/08/09 08:00:42;;;;;;;13.38;8.18;;;38.90;88.20;;;;;;4882081;29;20041;-83
2021/08/09 08:03:07;;;;;;;15.05;7.85;;;38.80;88.90;;;;;;4881668;29;20108;-82
2021/08/09 08:05:33;;;;;;;16.58;7.43;;;38.80;87.70;;;;;;4881474;29;20045;-82
2021/08/09 08:07:59;;;;;;;16.02;7.65;;;38.90;88.10;;;;;;4881727;29;20033;-82
2021/08/09 08:10:25;;;;;;;9.75;7.25;;;39.10;88.10;;;;;;4881102;29;20607;-83
2021/08/09 08:12:51;;;;;;;18.38;6.68;;;39.50;87.60;;;;;;4881668;29;20403;-87
2021/08/09 08:15:16;;;;;;;14.25;5.82;;;39.40;85.70;;;;;;4880604;29;20045;-84
2021/08/09 08:17:42;;;;;;;15.35;5.72;;;39.00;87.00;;;;;;4881562;29;20044;-86
2021/08/09 08:20:09;;;;;;;13.02;5.82;;;39.10;87.00;;;;;;4881289;29;20581;-87
2021/08/09 08:22:34;;;;;;;17.13;5.90;;;38.90;87.20;;;;;;4881618;29;20053;-81
2021/08/09 08:25:00;;;;;;;9.13;5.15;;;38.70;86.80;;;;;;4880964;29;20128;-82
2021/08/09 08:27:26;;;;;;;14.13;6.00;;;38.00;88.30;;;;;;4881480;29;20081;-85
2021/08/09 08:29:51;;;;;;;12.20;5.30;;;37.50;88.10;;;;;;4880888;29;20089;-84
2021/08/09 08:32:17;;;;;;;13.77;5.80;;;36.50;90.00;;;;;;4881913;29;20032;-81
2021/08/09 08:34:43;;;;;;;12.32;5.50;;;35.70;90.30;;;;;;4881276;29;20550;-84
2021/08/09 08:37:09;;;;;;;9.73;5.13;;;35.10;91.20;;;;;;4880844;29;20380;-82
2021/08/09 08:39:34;;;;;;;11.55;5.57;;;34.50;92.00;;;;;;4881196;29;20092;-87
2021/08/09 08:42:00;;;;;;;9.82;4.95;;;34.10;92.30;;;;;;4880812;29;20033;-85
2021/08/09 08:44:26;;;;;;;11.43;5.97;;;33.90;91.90;;;;;;4880962;29;20124;-85
2021/08/09 08:46:54;;;;;;;10.82;5.35;;;33.70;91.90;;;;;;4880908;29;20028;-82
2021/08/09 08:49:21;;;;;;;10.85;5.18;;;33.70;91.50;;;;;;4880731;29;20037;-86
2021/08/09 08:51:48;;;;;;;9.23;5.00;;;33.70;91.10;;;;;;4880771;29;20037;-87
2021/08/09 08:54:14;;;;;;;15.63;5.38;;;33.80;91.70;;;;;;4880558;29;20037;-85
2021/08/09 08:56:42;;;;;;;13.02;5.43;;;34.00;91.10;;;;;;4880430;29;20101;-85
2021/08/09 08:59:11;;;;;;;12.85;5.53;;;34.20;91.10;;;;;;4880468;29;20041;-85
2021/08/09 09:01:40;;;;;;;14.20;5.38;;;34.20;91.40;;;;;;4880944;29;20045;-84
2021/08/09 09:04:28;;;;;;;12.57;5.28;;;34.40;90.50;;;;;;4878960;29;20431;-86
2021/08/09 09:07:07;;;;;;;17.63;5.30;;;34.80;90.30;;;;;;4880274;29;20478;-86
2021/08/09 09:09:37;;;;;;;7.32;4.70;;;35.00;90.40;;;;;;4883331;29;20029;-85
2021/08/09 09:12:16;;;;;;;16.05;5.63;;;34.90;90.10;;;;;;4880284;29;20041;-88
2021/08/09 09:14:43;;;;;;;13.23;4.80;;;34.80;90.20;;;;;;4880067;29;20127;-82
2021/08/09 09:17:09;;;;;;;10.40;5.55;;;34.80;90.30;;;;;;4880137;29;20037;-86
2021/08/09 09:19:40;;;;;;;12.35;4.93;;;34.50;90.40;;;;;;4880241;29;20144;-85
2021/08/09 09:22:19;;;;;;;9.73;5.05;;;34.40;90.80;;;;;;4880267;29;20041;-86
2021/08/09 09:24:51;;;;;;;11.40;5.60;;;34.40;91.00;;;;;;4879935;29;20128;-83
2021/08/09 09:27:31;;;;;;;12.43;5.72;;;34.50;90.70;;;;;;4880402;29;20068;-83
2021/08/09 09:29:57;;;;;;;10.25;5.22;;;34.40;90.70;;;;;;4879863;29;20120;-84
2021/08/09 09:32:23;;;;;;;15.45;5.78;;;34.10;91.00;;;;;;4880000;29;20482;-89
2021/08/09 09:34:57;;;;;;;13.10;4.95;;;34.30;91.20;;;;;;4880107;29;20037;-87
2021/08/09 09:37:30;;;;;;;9.60;5.07;;;34.50;91.20;;;;;;4879934;29;20093;-86
2021/08/09 09:40:11;;;;;;;19.40;5.55;;;34.80;91.00;;;;;;4879895;29;20069;-88
2021/08/09 09:42:40;;;;;;;10.35;4.72;;;35.00;90.70;;;;;;4879859;29;20045;-87
2021/08/09 09:58:30;;;;;;;11.45;5.60;;;35.20;90.90;;;;;;1912904;29;20054;-85
2021/08/09 10:01:00;;;;;;;14.70;5.85;;;34.70;92.00;;;;;;4824376;29;20050;-77
2021/08/09 10:03:26;;;;;;;12.18;6.00;;;34.60;92.60;;;;;;4824492;29;20072;-85
2021/08/09 10:05:52;;;;;;;18.08;5.78;;;34.30;92.70;;;;;;4823992;29;20078;-81
2021/08/09 10:08:19;;;;;;;12.32;6.40;;;34.20;92.90;;;;;;4824808;29;20038;-82
2021/08/09 10:10:55;;;;;;;12.55;5.95;;;34.10;92.70;;;;;;4824549;29;20038;-82
2021/08/09 10:13:23;;;;;;;13.40;6.03;;;33.90;92.80;;;;;;4824235;29;20531;-86
2021/08/09 10:16:00;;;;;;;12.40;5.95;;;33.70;92.90;;;;;;4824341;29;20483;-86
2021/08/09 10:18:28;;;;;;;12.43;6.95;;;33.70;93.60;;;;;;4824443;29;20034;-81
2021/08/09 10:20:56;;;;;;;19.15;6.97;;;33.60;94.00;;;;;;4824431;29;20058;-82
2021/08/09 10:23:49;;;;;;;12.73;6.32;;;33.50;93.60;;;;;;4824571;29;20531;-85
2021/08/09 10:26:21;;;;;;;17.60;7.47;;;33.60;93.00;;;;;;4822793;29;20053;-83
2021/08/09 10:28:53;;;;;;;14.38;5.82;;;33.70;92.80;;;;;;4824479;29;20042;-86
2021/08/09 10:31:28;;;;;;;12.75;6.30;;;34.00;92.60;;;;;;4824262;29;20034;-78
2021/08/09 10:33:54;;;;;;;17.10;6.13;;;34.00;92.90;;;;;;4823315;29;20034;-87
2021/08/09 10:36:21;;;;;;;12.52;6.65;;;33.90;92.90;;;;;;4825818;29;20176;-80
2021/08/09 10:38:52;;;;;;;20.40;6.90;;;33.80;93.20;;;;;;4824584;29;20042;-82
2021/08/09 10:41:27;;;;;;;14.18;7.13;;;33.80;94.70;;;;;;4824208;29;20498;-80
2021/08/09 10:44:05;;;;;;;12.18;6.30;;;33.60;94.60;;;;;;4824070;29;20071;-87
2021/08/09 10:46:36;;;;;;;17.13;6.43;;;33.70;94.50;;;;;;4823153;29;20058;-80
2021/08/09 10:49:02;;;;;;;14.60;6.90;;;33.50;94.80;;;;;;4824183;29;20153;-80
2021/08/09 10:51:57;;;;;;;16.85;6.60;;;33.30;94.80;;;;;;4824194;29;20069;-81
2021/08/09 10:54:28;;;;;;;17.88;6.32;;;33.20;94.70;;;;;;4815560;29;20397;-80
2021/08/09 10:56:55;;;;;;;13.90;6.28;;;33.10;95.40;;;;;;4823599;29;20065;-86
2021/08/09 10:59:44;;;;;;;17.00;5.38;;;32.90;95.60;;;;;;4821513;29;20176;-79
2021/08/09 11:02:24;;;;;;;17.90;6.40;;;32.90;95.60;;;;;;4822930;29;20038;-83
2021/08/09 11:05:14;;;;;;;12.90;6.30;;;32.70;96.70;;;;;;4822889;29;20034;-82
2021/08/09 11:07:41;;;;;;;14.23;6.47;;;32.50;97.20;;;;;;4822965;29;20042;-81
2021/08/09 11:10:08;;;;;;;12.40;6.22;;;32.50;97.30;;;;;;4822920;29;20449;-78
2021/08/09 11:12:53;;;;;;;16.67;6.07;;;32.30;96.80;;;;;;4822704;29;20103;-82
2021/08/09 11:15:19;;;;;;;24.67;8.18;;;32.30;97.50;;;;;;4823662;29;20114;-80
2021/08/09 11:17:50;;;;;;;15.65;6.47;;;32.00;98.50;;;;;;4825237;29;20113;-89
2021/08/09 11:20:32;;;;;;;13.30;6.87;;;32.00;98.70;;;;;;4826898;29;20035;-78
2021/08/09 11:23:01;;;;;;;16.70;5.63;;;31.90;98.40;;;;;;4827185;29;20263;-79
2021/08/09 11:25:47;;;;;;;13.50;5.93;;;31.90;98.80;;;;;;4826904;29;20043;-82
2021/08/09 11:28:16;;;;;;;10.77;5.35;;;31.80;98.60;;;;;;4826747;29;20042;-85
2021/08/09 11:30:43;;;;;;;13.35;5.72;;;31.70;97.40;;;;;;4826823;29;20133;-83
2021/08/09 11:33:35;;;;;;;22.67;7.47;;;31.60;97.80;;;;;;4826921;29;20042;-84
2021/08/09 11:36:10;;;;;;;13.45;5.80;;;31.70;97.40;;;;;;4826736;29;20075;-79
2021/08/09 11:38:47;;;;;;;12.85;5.30;;;31.70;98.30;;;;;;4826685;29;20033;-84
2021/08/09 11:41:16;;;;;;;18.25;5.47;;;31.70;98.20;;;;;;4827149;29;20038;-80
2021/08/09 11:43:42;;;;;;;17.73;5.38;;;31.80;97.80;;;;;;4826608;29;20035;-82
2021/08/09 11:46:11;;;;;;;11.57;5.35;;;31.90;97.80;;;;;;4826805;29;20046;-78
2021/08/09 11:48:39;;;;;;;12.93;5.00;;;31.90;97.20;;;;;;4826454;29;20050;-81
2021/08/09 11:51:14;;;;;;;11.50;5.13;;;31.80;96.80;;;;;;4826459;29;20049;-81
2021/08/09 11:53:41;;;;;;;13.85;4.80;;;31.70;97.40;;;;;;4826691;29;20034;-81
2021/08/09 11:56:20;;;;;;;10.40;5.25;;;31.60;97.40;;;;;;4826466;29;20034;-81
2021/08/09 11:58:46;;;;;;;11.73;4.68;;;31.60;97.30;;;;;;4825947;29;20487;-81
2021/08/09 12:01:34;;;;;;;11.48;4.90;;;31.60;97.70;;;;;;4826429;29;20049;-81
2021/08/09 12:04:21;;;;;;;19.25;4.85;;;31.60;97.60;;;;;;4826540;29;20440;-82
2021/08/09 12:06:57;;;;;;;12.32;5.05;;;31.70;97.30;;;;;;4826234;29;20066;-78
2021/08/09 12:09:39;;;;;;;10.18;4.88;;;31.80;97.20;;;;;;4826517;29;20050;-82
2021/08/09 12:12:07;;;;;;;8.07;5.22;;;31.90;97.50;;;;;;4826423;29;20041;-82
2021/08/09 12:14:33;;;;;;;12.00;5.93;;;31.90;97.70;;;;;;4826065;29;20099;-80
2021/08/09 12:17:10;;;;;;;10.65;5.32;;;31.90;97.80;;;;;;4825935;29;20042;-79
2021/08/09 12:19:41;;;;;;;11.45;5.18;;;31.90;98.20;;;;;;4826086;29;20122;-80
2021/08/09 12:22:42;;;;;;;13.15;4.95;;;31.90;98.80;;;;;;4825950;29;20053;-82
2021/08/09 12:25:22;;;;;;;18.40;6.30;;;31.90;99.90;;;;;;4817725;29;20082;-82
2021/08/09 12:28:00;;;;;;;9.95;5.50;;;31.60;99.90;;;;;;4826229;29;20034;-79
2021/08/09 12:30:26;;;;;;;7.72;4.97;;;31.40;99.90;;;;;;4825340;29;20128;-79
2021/08/09 12:33:03;;;;;;;10.55;5.28;;;31.30;99.90;;;;;;4825683;29;20034;-81
2021/08/09 12:35:37;;;;;;;14.80;5.50;;;31.30;99.90;;;;;;4825063;29;20043;-79
2021/08/09 12:38:04;;;;;;;16.63;6.00;;;31.20;99.90;;;;;;4826093;29;20050;-78
2021/08/09 12:40:49;;;;;;;15.88;5.43;;;31.10;99.90;;;;;;4825709;29;20057;-79
2021/08/09 12:43:16;;;;;;;11.52;5.53;;;30.90;99.90;;;;;;4825800;29;20404;-79
2021/08/09 12:45:44;;;;;;;15.18;5.05;;;30.90;99.90;;;;;;4825573;29;20129;-81
2021/08/09 12:48:11;;;;;;;17.10;5.22;;;30.90;99.90;;;;;;4825644;29;20057;-81
2021/08/09 12:50:39;;;;;;;10.15;5.53;;;31.00;99.90;;;;;;4825590;29;20054;-81
2021/08/09 12:53:04;;;;;;;14.38;5.53;;;30.90;99.90;;;;;;4825325;29;20095;-81
2021/08/09 12:55:31;;;;;;;11.15;4.72;;;30.80;99.90;;;;;;4825652;29;20042;-81
2021/08/09 12:57:59;;;;;;;11.82;5.07;;;30.60;99.90;;;;;;4825566;29;20113;-82
2021/08/09 13:00:25;;;;;;;11.07;4.93;;;30.40;99.90;;;;;;4825238;29;20465;-81